createdAt,value
2018-09-15T00:00:15.837Z,17.27
2018-09-15T00:02:44.500Z,17.80
2018-09-15T00:05:13.716Z,17.33
2018-09-15T00:07:42.462Z,17.60
2018-09-15T00:10:13.791Z,16.00
2018-09-15T00:12:42.276Z,16.77
2018-09-15T00:15:10.753Z,17.30
2018-09-15T00:17:40.625Z,17.33
2018-09-15T00:20:09.937Z,16.57
2018-09-15T00:22:38.414Z,17.17
2018-09-15T00:25:07.187Z,16.40
2018-09-15T00:27:35.677Z,17.40
2018-09-15T00:30:04.267Z,16.37
2018-09-15T00:32:32.770Z,16.10
2018-09-15T00:35:01.382Z,16.73
2018-09-15T00:37:29.824Z,17.73
2018-09-15T00:39:58.405Z,20.53
2018-09-15T00:42:26.856Z,19.27
2018-09-15T00:44:55.417Z,18.83
2018-09-15T00:47:23.962Z,17.67
2018-09-15T00:49:52.545Z,16.80
2018-09-15T00:52:21.447Z,17.80
2018-09-15T00:54:50.173Z,17.87
2018-09-15T00:57:18.887Z,18.50
2018-09-15T00:59:47.394Z,19.50
2018-09-15T01:02:15.905Z,19.40
2018-09-15T01:04:44.944Z,18.37
2018-09-15T01:07:14.417Z,19.37
2018-09-15T01:09:42.970Z,16.73
2018-09-15T01:12:11.420Z,17.97
2018-09-15T01:14:39.840Z,19.10
2018-09-15T01:17:08.381Z,16.80
2018-09-15T01:19:36.813Z,18.37
2018-09-15T01:22:05.306Z,17.53
2018-09-15T01:24:33.877Z,18.40
2018-09-15T01:27:02.590Z,17.40
2018-09-15T01:29:31.157Z,17.30
2018-09-15T01:31:59.617Z,16.20
2018-09-15T01:34:28.079Z,18.30
2018-09-15T01:36:56.620Z,19.73
2018-09-15T01:39:25.118Z,20.40
2018-09-15T01:41:53.577Z,20.70
2018-09-15T01:44:22.060Z,19.67
2018-09-15T01:46:50.542Z,19.93
2018-09-15T01:49:19.104Z,21.13
2018-09-15T01:51:47.512Z,19.50
2018-09-15T01:54:16.065Z,19.77
2018-09-15T01:56:44.487Z,20.23
2018-09-15T01:59:13.089Z,20.10
2018-09-15T02:01:41.620Z,19.30
2018-09-15T02:04:11.098Z,19.77
2018-09-15T02:06:39.564Z,17.90
2018-09-15T02:09:11.236Z,19.97
2018-09-15T02:11:39.687Z,19.27
2018-09-15T02:14:08.178Z,19.63
2018-09-15T02:16:36.725Z,18.63
2018-09-15T02:19:05.245Z,19.33
2018-09-15T02:21:33.746Z,18.13
2018-09-15T02:24:02.192Z,17.53
2018-09-15T02:26:30.654Z,18.27
2018-09-15T02:28:59.250Z,16.77
2018-09-15T02:31:27.747Z,17.87
2018-09-15T02:33:56.230Z,17.20
2018-09-15T02:36:24.991Z,17.40
2018-09-15T02:38:53.421Z,16.80
2018-09-15T02:41:21.864Z,18.20
2018-09-15T02:43:50.406Z,16.70
2018-09-15T02:46:18.917Z,17.60
2018-09-15T02:48:47.367Z,16.60
2018-09-15T02:51:15.831Z,16.73
2018-09-15T02:53:44.284Z,18.73
2018-09-15T02:56:12.732Z,17.23
2018-09-15T02:58:41.200Z,17.37
2018-09-15T03:01:09.701Z,19.00
2018-09-15T03:03:38.169Z,19.27
2018-09-15T03:06:06.961Z,21.73
2018-09-15T03:08:35.579Z,19.67
2018-09-15T03:11:04.117Z,22.90
2018-09-15T03:13:32.570Z,22.63
2018-09-15T03:16:01.022Z,20.90
2018-09-15T03:18:29.488Z,19.57
2018-09-15T03:20:58.028Z,19.77
2018-09-15T03:23:26.476Z,19.40
2018-09-15T03:25:55.045Z,19.37
2018-09-15T03:28:23.510Z,21.80
2018-09-15T03:30:52.097Z,24.20
2018-09-15T03:33:20.585Z,25.07
2018-09-15T03:35:49.042Z,23.90
2018-09-15T03:38:17.623Z,24.20
2018-09-15T03:40:46.085Z,21.60
2018-09-15T03:43:14.569Z,22.53
2018-09-15T03:45:42.992Z,23.33
2018-09-15T03:48:11.469Z,24.33
2018-09-15T03:50:39.905Z,23.13
2018-09-15T03:53:08.412Z,20.93
2018-09-15T03:55:36.856Z,22.97
2018-09-15T03:58:05.376Z,24.53
2018-09-15T04:00:34.358Z,23.73
2018-09-15T04:03:02.807Z,21.87
2018-09-15T04:05:31.300Z,22.10
2018-09-15T04:07:59.732Z,23.27
2018-09-15T04:10:28.186Z,20.83
2018-09-15T04:12:56.618Z,21.17
2018-09-15T04:15:25.100Z,20.40
2018-09-15T04:17:53.565Z,21.70
2018-09-15T04:20:22.080Z,20.70
2018-09-15T04:22:50.583Z,19.80
2018-09-15T04:25:19.102Z,19.90
2018-09-15T04:27:47.649Z,19.20
2018-09-15T04:30:16.109Z,20.20
2018-09-15T04:32:44.629Z,19.10
2018-09-15T04:35:13.172Z,20.17
2018-09-15T04:37:41.690Z,20.57
2018-09-15T04:40:10.132Z,19.93
2018-09-15T04:42:38.581Z,20.17
2018-09-15T04:45:07.163Z,20.00
2018-09-15T04:47:35.896Z,21.37
2018-09-15T04:50:04.797Z,20.83
2018-09-15T04:52:33.253Z,19.50
2018-09-15T04:55:01.705Z,20.40
2018-09-15T04:57:30.729Z,20.33
2018-09-15T04:59:59.212Z,20.70
2018-09-15T05:02:27.696Z,19.77
2018-09-15T05:04:56.230Z,21.07
2018-09-15T05:07:24.844Z,19.87
2018-09-15T05:09:53.422Z,21.50
2018-09-15T05:12:22.380Z,19.23
2018-09-15T05:14:50.840Z,21.40
2018-09-15T05:17:20.696Z,21.33
2018-09-15T05:19:49.179Z,21.40
2018-09-15T05:22:17.638Z,20.83
2018-09-15T05:24:46.882Z,21.20
2018-09-15T05:27:15.506Z,21.73
2018-09-15T05:29:43.977Z,21.83
2018-09-15T05:32:12.457Z,22.10
2018-09-15T05:34:41.018Z,24.10
2018-09-15T05:37:09.629Z,23.27
2018-09-15T05:39:38.275Z,25.07
2018-09-15T05:42:07.357Z,23.50
2018-09-15T05:44:35.850Z,22.63
2018-09-15T05:47:04.333Z,23.13
2018-09-15T05:49:32.860Z,23.67
2018-09-15T05:52:02.256Z,24.70
2018-09-15T05:54:30.752Z,23.33
2018-09-15T05:56:59.312Z,21.17
2018-09-15T05:59:27.900Z,24.37
2018-09-15T06:01:56.447Z,23.00
2018-09-15T06:04:25.881Z,23.13
2018-09-15T06:06:54.469Z,23.53
2018-09-15T06:09:22.905Z,22.50
2018-09-15T06:11:51.539Z,20.60
2018-09-15T06:14:20.009Z,21.50
2018-09-15T06:16:48.532Z,22.20
2018-09-15T06:19:17.010Z,19.87
2018-09-15T06:21:45.548Z,19.60
2018-09-15T06:24:14.221Z,18.43
2018-09-15T06:26:42.958Z,19.00
2018-09-15T06:29:11.586Z,17.90
2018-09-15T06:31:40.091Z,19.37
2018-09-15T06:34:08.685Z,18.73
2018-09-15T06:36:37.210Z,17.60
2018-09-15T06:39:08.866Z,18.10
2018-09-15T06:41:37.616Z,18.00
2018-09-15T06:44:06.143Z,17.30
2018-09-15T06:46:34.708Z,17.43
2018-09-15T06:49:03.361Z,16.70
2018-09-15T06:51:31.911Z,18.57
2018-09-15T06:54:00.867Z,17.00
2018-09-15T06:56:29.368Z,16.77
2018-09-15T06:58:57.928Z,17.40
2018-09-15T07:01:26.777Z,16.20
2018-09-15T07:03:55.348Z,16.83
2018-09-15T07:06:23.870Z,16.83
2018-09-15T07:08:52.562Z,15.37
2018-09-15T07:11:21.016Z,15.90
2018-09-15T07:13:49.615Z,16.00
2018-09-15T07:16:18.183Z,16.60
2018-09-15T07:18:46.641Z,14.93
2018-09-15T07:21:15.264Z,16.33
2018-09-15T07:23:43.709Z,15.80
2018-09-15T07:26:12.797Z,16.07
2018-09-15T07:28:41.302Z,15.60
2018-09-15T07:31:09.942Z,14.00
2018-09-15T07:33:38.341Z,14.90
2018-09-15T07:36:06.985Z,15.03
2018-09-15T07:38:35.506Z,13.93
2018-09-15T07:41:04.318Z,14.37
2018-09-15T07:43:32.996Z,13.00
2018-09-15T07:46:02.764Z,13.77
2018-09-15T07:48:31.938Z,12.20
2018-09-15T07:51:00.549Z,12.27
2018-09-15T07:53:29.036Z,11.70
2018-09-15T07:55:57.521Z,10.63
2018-09-15T07:58:26.003Z,10.90
2018-09-15T08:00:54.519Z,11.57
2018-09-15T08:03:23.073Z,11.60
2018-09-15T08:05:51.553Z,11.27
2018-09-15T08:08:20.037Z,11.50
2018-09-15T08:10:48.493Z,10.30
2018-09-15T08:13:16.977Z,10.07
2018-09-15T08:15:45.424Z,10.87
2018-09-15T08:18:13.928Z,10.10
2018-09-15T08:20:42.449Z,9.70
2018-09-15T08:23:10.892Z,9.80
2018-09-15T08:25:39.527Z,10.20
2018-09-15T08:28:07.998Z,9.87
2018-09-15T08:30:36.452Z,10.50
2018-09-15T08:33:04.911Z,9.83
2018-09-15T08:35:33.384Z,8.73
2018-09-15T08:38:01.876Z,9.03
2018-09-15T08:40:30.302Z,8.70
2018-09-15T08:42:58.765Z,9.23
2018-09-15T08:45:27.633Z,10.63
2018-09-15T08:47:56.078Z,9.20
2018-09-15T08:50:24.941Z,7.70
2018-09-15T08:52:53.376Z,8.70
2018-09-15T08:55:21.865Z,9.00
2018-09-15T08:57:50.934Z,7.73
2018-09-15T09:00:19.464Z,7.30
2018-09-15T09:02:47.913Z,6.50
2018-09-15T09:05:16.377Z,6.30
2018-09-15T09:07:44.949Z,7.70
2018-09-15T09:10:13.543Z,6.40
2018-09-15T09:12:42.075Z,6.37
2018-09-15T09:15:10.610Z,6.90
2018-09-15T09:17:39.057Z,7.00
2018-09-15T09:20:08.155Z,5.63
2018-09-15T09:22:36.715Z,6.50
2018-09-15T09:25:05.215Z,6.30
2018-09-15T09:27:33.730Z,6.10
2018-09-15T09:30:02.369Z,6.27
2018-09-15T09:32:31.089Z,6.80
2018-09-15T09:35:00.141Z,6.53
2018-09-15T09:37:28.713Z,6.03
2018-09-15T09:39:57.220Z,5.70
2018-09-15T09:42:25.971Z,5.80
2018-09-15T09:44:54.708Z,5.83
2018-09-15T09:47:23.197Z,6.03
2018-09-15T09:49:51.638Z,7.00
2018-09-15T09:52:20.147Z,5.60
2018-09-15T09:54:48.609Z,6.23
2018-09-15T09:57:17.117Z,5.90
2018-09-15T09:59:45.638Z,6.27
2018-09-15T10:02:15.357Z,5.20
2018-09-15T10:04:43.859Z,5.83
2018-09-15T10:07:12.484Z,5.47
2018-09-15T10:09:41.050Z,7.10
2018-09-15T10:12:10.120Z,5.20
2018-09-15T10:14:38.586Z,5.50
2018-09-15T10:17:07.340Z,5.87
2018-09-15T10:19:35.905Z,5.20
2018-09-15T10:22:04.455Z,5.03
2018-09-15T10:24:33.652Z,5.23
2018-09-15T10:27:02.382Z,4.90
2018-09-15T10:29:30.840Z,5.10
2018-09-15T10:31:59.523Z,5.33
2018-09-15T10:34:28.023Z,4.70
2018-09-15T10:36:56.642Z,5.80
2018-09-15T10:39:25.678Z,4.50
2018-09-15T10:41:53.752Z,5.03
2018-09-15T10:44:22.229Z,4.67
2018-09-15T10:46:50.709Z,5.23
2018-09-15T10:49:19.186Z,4.80
2018-09-15T10:51:48.188Z,4.90
2018-09-15T10:54:16.866Z,5.37
2018-09-15T10:56:45.898Z,4.33
2018-09-15T10:59:14.357Z,3.80
2018-09-15T11:01:42.796Z,4.83
2018-09-15T11:04:11.500Z,5.97
2018-09-15T11:06:39.989Z,4.50
2018-09-15T11:09:09.529Z,4.00
2018-09-15T11:11:38.009Z,5.03
2018-09-15T11:14:06.808Z,4.40
2018-09-15T11:16:35.258Z,4.87
2018-09-15T11:19:03.749Z,4.83
2018-09-15T11:21:32.222Z,5.20
2018-09-15T11:24:00.669Z,4.10
2018-09-15T11:26:29.212Z,4.33
2018-09-15T11:28:57.875Z,4.83
2018-09-15T11:31:26.881Z,4.40
2018-09-15T11:33:56.358Z,5.33
2018-09-15T11:36:24.888Z,4.03
2018-09-15T11:38:53.433Z,4.03
2018-09-15T11:41:22.074Z,4.07
2018-09-15T11:43:50.572Z,4.20
2018-09-15T11:46:19.209Z,4.07
2018-09-15T11:48:47.668Z,4.30
2018-09-15T11:51:16.277Z,4.33
2018-09-15T11:53:44.930Z,4.47
2018-09-15T11:56:14.805Z,3.73
2018-09-15T11:58:43.782Z,4.17
2018-09-15T12:01:12.246Z,4.33
2018-09-15T12:03:40.738Z,4.40
2018-09-15T12:06:09.322Z,4.03
2018-09-15T12:08:37.815Z,4.00
2018-09-15T12:11:06.264Z,4.33
2018-09-15T12:13:34.769Z,4.10
2018-09-15T12:16:03.236Z,3.80
2018-09-15T12:18:32.701Z,4.27
2018-09-15T12:21:01.248Z,4.10
2018-09-15T12:23:29.725Z,5.27
2018-09-15T12:25:58.212Z,3.97
2018-09-15T12:28:26.825Z,4.73
2018-09-15T12:30:55.307Z,3.77
2018-09-15T12:33:23.893Z,3.33
2018-09-15T12:35:52.633Z,4.67
2018-09-15T12:38:21.415Z,4.80
2018-09-15T12:40:49.942Z,4.33
2018-09-15T12:43:19.910Z,4.37
2018-09-15T12:45:48.650Z,4.23
2018-09-15T12:48:17.180Z,4.33
2018-09-15T12:50:45.757Z,3.63
2018-09-15T12:53:14.362Z,3.73
2018-09-15T12:55:42.849Z,3.10
2018-09-15T12:58:11.372Z,3.90
2018-09-15T13:00:39.828Z,3.57
2018-09-15T13:03:08.311Z,3.30
2018-09-15T13:05:37.026Z,3.93
2018-09-15T13:08:05.544Z,4.30
2018-09-15T13:10:34.061Z,3.83
2018-09-15T13:13:03.025Z,4.17
2018-09-15T13:15:32.231Z,3.80
2018-09-15T13:18:00.835Z,3.70
2018-09-15T13:20:29.422Z,3.67
2018-09-15T13:22:58.070Z,2.97
2018-09-15T13:25:26.660Z,3.80
2018-09-15T13:27:55.344Z,4.20
2018-09-15T13:30:24.729Z,3.63
2018-09-15T13:32:53.239Z,3.93
2018-09-15T13:35:21.716Z,3.50
2018-09-15T13:37:50.172Z,3.37
2018-09-15T13:40:18.676Z,3.57
2018-09-15T13:42:47.715Z,4.07
2018-09-15T13:45:16.276Z,4.00
2018-09-15T13:47:44.717Z,3.30
2018-09-15T13:50:13.824Z,3.90
2018-09-15T13:52:42.345Z,3.63
2018-09-15T13:55:10.819Z,3.60
2018-09-15T13:57:40.217Z,4.00
2018-09-15T14:00:08.872Z,3.80
2018-09-15T14:02:43.033Z,3.30
2018-09-15T14:05:13.434Z,4.13
2018-09-15T14:07:42.508Z,3.17
2018-09-15T14:10:11.609Z,3.27
2018-09-15T14:12:40.580Z,3.53
2018-09-15T14:15:09.186Z,3.03
2018-09-15T14:17:37.721Z,3.87
2018-09-15T14:20:06.528Z,3.70
2018-09-15T14:22:35.065Z,2.83
2018-09-15T14:25:04.124Z,3.97
2018-09-15T14:27:32.558Z,3.30
2018-09-15T14:30:01.522Z,3.70
2018-09-15T14:32:30.101Z,3.10
2018-09-15T14:34:58.675Z,3.43
2018-09-15T14:37:27.904Z,3.23
2018-09-15T14:39:56.361Z,3.80
2018-09-15T14:42:25.182Z,4.03
2018-09-15T14:44:53.865Z,3.83
2018-09-15T14:47:23.053Z,3.80
2018-09-15T14:49:52.017Z,3.20
2018-09-15T14:52:20.968Z,3.40
2018-09-15T14:54:51.157Z,3.87
2018-09-15T14:57:19.671Z,4.20
2018-09-15T14:59:48.148Z,4.10
2018-09-15T15:02:16.661Z,3.97
2018-09-15T15:04:45.496Z,3.10
2018-09-15T15:07:14.123Z,3.40
2018-09-15T15:09:43.095Z,3.57
2018-09-15T15:12:13.492Z,3.43
2018-09-15T15:14:42.035Z,2.93
2018-09-15T15:17:10.495Z,3.23
2018-09-15T15:19:39.089Z,3.00
2018-09-15T15:22:07.829Z,3.23
2018-09-15T15:24:36.377Z,3.47
2018-09-15T15:27:04.997Z,2.97
2018-09-15T15:29:33.661Z,2.93
2018-09-15T15:32:02.174Z,4.10
2018-09-15T15:34:30.823Z,3.43
2018-09-15T15:36:59.552Z,2.70
2018-09-15T15:39:28.269Z,2.97
2018-09-15T15:41:57.554Z,3.50
2018-09-15T15:44:26.074Z,2.70
2018-09-15T15:46:59.201Z,3.30
2018-09-15T15:49:27.765Z,3.23
2018-09-15T15:51:59.415Z,3.50
2018-09-15T15:54:28.081Z,2.87
2018-09-15T15:56:56.552Z,3.40
2018-09-15T15:59:25.105Z,3.10
2018-09-15T16:01:53.563Z,3.37
2018-09-15T16:04:22.326Z,3.67
2018-09-15T16:06:50.754Z,3.70
2018-09-15T16:09:19.241Z,3.40
2018-09-15T16:11:47.861Z,3.00
2018-09-15T16:14:16.429Z,2.87
2018-09-15T16:16:44.904Z,3.10
2018-09-15T16:19:14.417Z,2.97
2018-09-15T16:21:42.880Z,2.87
2018-09-15T16:24:11.507Z,2.90
2018-09-15T16:26:40.041Z,2.87
2018-09-15T16:29:08.594Z,2.87
2018-09-15T16:31:37.026Z,3.23
2018-09-15T16:34:05.655Z,3.70
2018-09-15T16:36:34.218Z,3.13
2018-09-15T16:39:02.704Z,3.03
2018-09-15T16:41:31.146Z,3.07
2018-09-15T16:43:59.706Z,6.50
2018-09-15T16:46:28.212Z,4.67
2018-09-15T16:48:56.727Z,6.90
2018-09-15T16:51:25.409Z,13.73
2018-09-15T16:53:54.850Z,9.10
2018-09-15T16:56:23.357Z,10.03
2018-09-15T16:58:52.268Z,7.57
2018-09-15T17:01:21.057Z,5.67
2018-09-15T17:03:49.865Z,3.87
2018-09-15T17:06:18.744Z,3.97
2018-09-15T17:08:47.387Z,3.67
2018-09-15T17:11:15.988Z,3.80
2018-09-15T17:13:44.478Z,4.00
2018-09-15T17:16:13.176Z,5.47
2018-09-15T17:18:41.628Z,8.00
2018-09-15T17:21:10.175Z,7.50
2018-09-15T17:23:38.648Z,6.33
2018-09-15T17:26:07.191Z,5.50
2018-09-15T17:28:35.658Z,3.80
2018-09-15T17:31:04.298Z,3.77
2018-09-15T17:33:32.771Z,3.73
2018-09-15T17:36:01.480Z,3.13
2018-09-15T17:38:29.894Z,4.50
2018-09-15T17:40:58.435Z,4.00
2018-09-15T17:43:27.048Z,3.73
2018-09-15T17:45:55.519Z,4.43
2018-09-15T17:48:23.965Z,3.40
2018-09-15T17:50:53.227Z,3.50
2018-09-15T17:53:21.674Z,3.93
2018-09-15T17:55:50.890Z,3.20
2018-09-15T17:58:19.366Z,3.13
2018-09-15T18:00:48.518Z,3.80
2018-09-15T18:03:17.025Z,3.20
2018-09-15T18:05:45.700Z,2.90
2018-09-15T18:08:14.767Z,2.40
2018-09-15T18:10:43.784Z,3.40
2018-09-15T18:13:12.269Z,3.63
2018-09-15T18:15:40.816Z,3.37
2018-09-15T18:18:09.324Z,3.23
2018-09-15T18:20:37.843Z,2.90
2018-09-15T18:23:06.580Z,3.53
2018-09-15T18:25:35.068Z,2.90
2018-09-15T18:28:03.783Z,3.40
2018-09-15T18:30:32.378Z,3.33
2018-09-15T18:33:00.860Z,3.07
2018-09-15T18:35:29.422Z,3.10
2018-09-15T18:37:57.965Z,3.43
2018-09-15T18:40:26.481Z,3.17
2018-09-15T18:42:55.149Z,3.20
2018-09-15T18:45:23.633Z,3.30
2018-09-15T18:47:52.149Z,3.10
2018-09-15T18:50:20.632Z,3.60
2018-09-15T18:52:50.145Z,3.67
2018-09-15T18:55:18.599Z,3.10
2018-09-15T18:57:47.081Z,3.83
2018-09-15T19:00:16.276Z,3.90
2018-09-15T19:02:44.668Z,3.67
2018-09-15T19:05:13.269Z,3.60
2018-09-15T19:07:41.722Z,3.83
2018-09-15T19:10:10.217Z,4.60
2018-09-15T19:12:38.717Z,3.43
2018-09-15T19:15:07.436Z,3.90
2018-09-15T19:17:35.987Z,4.03
2018-09-15T19:20:05.125Z,5.30
2018-09-15T19:22:34.072Z,3.97
2018-09-15T19:25:02.567Z,4.03
2018-09-15T19:27:31.158Z,3.80
2018-09-15T19:29:59.917Z,4.53
2018-09-15T19:32:28.402Z,5.20
2018-09-15T19:34:57.596Z,4.70
2018-09-15T19:37:26.124Z,5.43
2018-09-15T19:39:54.576Z,4.63
2018-09-15T19:42:23.108Z,4.17
2018-09-15T19:44:51.557Z,4.93
2018-09-15T19:47:20.124Z,4.70
2018-09-15T19:49:48.657Z,4.83
2018-09-15T19:52:17.366Z,4.37
2018-09-15T19:54:45.890Z,5.00
2018-09-15T19:57:14.349Z,3.60
2018-09-15T19:59:42.985Z,4.47
2018-09-15T20:02:11.507Z,4.90
2018-09-15T20:04:40.067Z,4.87
2018-09-15T20:07:08.701Z,5.07
2018-09-15T20:09:37.165Z,5.70
2018-09-15T20:12:05.669Z,5.07
2018-09-15T20:14:34.196Z,5.67
2018-09-15T20:17:01.553Z,5.30
2018-09-15T20:19:28.875Z,6.60
2018-09-15T20:21:56.313Z,5.10
2018-09-15T20:24:24.885Z,5.20
2018-09-15T20:26:53.364Z,4.20
2018-09-15T20:29:21.821Z,5.03
2018-09-15T20:31:50.353Z,5.23
2018-09-15T20:34:18.829Z,4.90
2018-09-15T20:36:47.371Z,4.70
2018-09-15T20:39:15.880Z,4.80
2018-09-15T20:41:44.540Z,5.00
2018-09-15T20:44:13.049Z,4.87
2018-09-15T20:46:42.032Z,4.10
2018-09-15T20:49:10.591Z,5.17
2018-09-15T20:51:38.972Z,4.50
2018-09-15T20:54:07.758Z,5.03
2018-09-15T20:56:36.455Z,4.50
2018-09-15T20:59:05.147Z,4.90
2018-09-15T21:01:33.628Z,3.80
2018-09-15T21:04:02.139Z,5.20
2018-09-15T21:06:30.609Z,16.17
2018-09-15T21:08:59.177Z,15.90
2018-09-15T21:11:27.909Z,13.73
2018-09-15T21:13:56.445Z,9.40
2018-09-15T21:16:25.701Z,6.73
2018-09-15T21:18:54.240Z,4.83
2018-09-15T21:21:23.336Z,4.80
2018-09-15T21:23:51.933Z,4.30
2018-09-15T21:26:20.416Z,4.83
2018-09-15T21:28:49.029Z,4.50
2018-09-15T21:31:17.495Z,4.37
2018-09-15T21:33:46.048Z,4.60
2018-09-15T21:36:14.657Z,5.13
2018-09-15T21:38:43.248Z,4.73
2018-09-15T21:41:11.800Z,4.80
2018-09-15T21:43:40.314Z,4.30
2018-09-15T21:46:09.487Z,4.57
2018-09-15T21:48:37.881Z,4.50
2018-09-15T21:51:06.773Z,4.83
2018-09-15T21:53:35.397Z,4.97
2018-09-15T21:56:03.945Z,5.03
2018-09-15T21:58:32.541Z,4.90
2018-09-15T22:01:04.045Z,5.33
2018-09-15T22:03:36.929Z,4.80
2018-09-15T22:06:05.473Z,5.13
2018-09-15T22:08:33.955Z,5.10
2018-09-15T22:11:02.414Z,6.30
2018-09-15T22:13:31.840Z,4.97
2018-09-15T22:16:00.466Z,5.07
2018-09-15T22:18:28.940Z,5.35
2018-09-15T22:20:57.401Z,5.77
2018-09-15T22:23:25.953Z,5.07
2018-09-15T22:25:55.458Z,5.43
2018-09-15T22:28:24.517Z,4.50
2018-09-15T22:30:53.003Z,5.55
2018-09-15T22:33:21.473Z,5.20
2018-09-15T22:35:49.959Z,4.75
2018-09-15T22:38:18.676Z,5.47
2018-09-15T22:40:47.747Z,5.45
2018-09-15T22:43:16.249Z,5.47
2018-09-15T22:45:44.721Z,5.20
2018-09-15T22:48:13.589Z,5.62
2018-09-15T22:50:42.067Z,5.03
2018-09-15T22:53:11.428Z,5.00
2018-09-15T22:55:39.926Z,5.37
2018-09-15T22:58:09.311Z,4.83
2018-09-15T23:00:37.888Z,5.30
2018-09-15T23:03:06.916Z,4.60
2018-09-15T23:05:35.561Z,4.90
2018-09-15T23:08:04.075Z,5.05
2018-09-15T23:10:32.634Z,5.25
2018-09-15T23:13:01.128Z,5.22
2018-09-15T23:15:29.644Z,4.72
2018-09-15T23:17:58.258Z,5.10
2018-09-15T23:20:26.707Z,5.33
2018-09-15T23:22:55.300Z,5.85
2018-09-15T23:25:24.314Z,5.78
2018-09-15T23:27:52.757Z,6.05
2018-09-15T23:30:21.279Z,6.05
2018-09-15T23:32:49.800Z,5.58
2018-09-15T23:35:18.292Z,6.42
2018-09-15T23:37:46.802Z,5.85
2018-09-15T23:40:15.261Z,5.15
2018-09-15T23:42:43.828Z,5.30
2018-09-15T23:45:12.288Z,5.72
2018-09-15T23:47:41.603Z,5.30
2018-09-15T23:50:10.089Z,5.37
2018-09-15T23:52:39.559Z,5.00
2018-09-15T23:55:08.034Z,5.50
2018-09-15T23:57:36.490Z,4.85
